Time;durP1;ratioP1;P1;durP2;ratioP2;P2;SDS_P1;SDS_P2;PMS_P1;PMS_P2;Temp;Humidity;BMP_temperature;BMP_pressure;BME280_temperature;BME280_humidity;BME280_pressure;Samples;Min_cycle;Max_cycle;Signal;HPM_P1;HPM_P2
2021/12/02 00:02:19;;;;;;;1643.33;272.57;;;4.60;99.90;;;;;;5121197;27;20473;-75
2021/12/02 00:04:50;;;;;;;1999.90;999.90;;;4.70;99.90;;;;;;5051329;28;20434;-74
2021/12/02 00:07:18;;;;;;;1999.90;776.77;;;4.60;99.90;;;;;;5120296;27;20468;-75
2021/12/02 00:09:47;;;;;;;1999.90;451.03;;;4.60;99.90;;;;;;5050842;28;20443;-75
2021/12/02 00:12:15;;;;;;;1999.90;999.90;;;4.60;99.90;;;;;;5119871;27;20480;-75
2021/12/02 00:14:45;;;;;;;1511.30;206.87;;;4.60;99.90;;;;;;5119652;27;21045;-75
2021/12/02 00:17:21;;;;;;;1999.90;126.10;;;4.60;99.90;;;;;;5051113;28;21013;-75
2021/12/02 00:23:05;;;;;;;1999.90;699.47;;;4.60;99.90;;;;;;5051371;27;20565;-75
2021/12/02 00:25:33;;;;;;;1999.90;161.27;;;4.60;99.90;;;;;;5051366;28;20540;-75
2021/12/02 00:28:02;;;;;;;1990.90;105.77;;;4.60;99.90;;;;;;5051011;28;20444;-75
2021/12/02 00:30:31;;;;;;;1999.90;999.90;;;4.60;99.90;;;;;;5119465;27;20988;-80
2021/12/02 00:33:02;;;;;;;1999.90;999.90;;;4.60;99.90;;;;;;5151638;27;20472;-75
2021/12/02 00:35:32;;;;;;;1999.90;999.90;;;4.60;99.90;;;;;;5155865;27;20423;-75
2021/12/02 00:38:02;;;;;;;1999.90;397.33;;;4.60;99.90;;;;;;5136995;27;20864;-75
2021/12/02 00:40:34;;;;;;;1540.63;230.80;;;4.60;99.90;;;;;;5136849;27;20445;-75
2021/12/02 00:43:02;;;;;;;1545.70;256.43;;;4.60;99.90;;;;;;5155748;27;21026;-75
2021/12/02 00:45:32;;;;;;;1571.40;260.97;;;4.60;99.90;;;;;;5137974;27;20807;-74
2021/12/02 00:48:01;;;;;;;1999.90;999.90;;;4.60;99.90;;;;;;5155389;27;20467;-75
2021/12/02 00:50:31;;;;;;;1222.07;180.20;;;4.60;99.90;;;;;;5136894;27;20873;-75
2021/12/02 00:53:02;;;;;;;1309.43;262.13;;;4.60;99.90;;;;;;5136618;27;20473;-75
2021/12/02 00:55:30;;;;;;;769.60;154.20;;;4.60;99.90;;;;;;5136704;27;20441;-75
2021/12/02 00:58:00;;;;;;;1999.90;467.63;;;4.60;99.90;;;;;;5155425;27;20429;-75
2021/12/02 01:00:28;;;;;;;1101.73;122.47;;;4.50;99.90;;;;;;5136707;27;20452;-75
2021/12/02 01:02:59;;;;;;;1999.90;458.13;;;4.50;99.90;;;;;;5136531;27;20479;-75
2021/12/02 01:05:28;;;;;;;1190.70;152.03;;;4.50;99.90;;;;;;5155186;27;20489;-75
2021/12/02 01:08:00;;;;;;;1999.90;366.30;;;4.50;99.90;;;;;;5136469;27;20540;-74
2021/12/02 01:10:29;;;;;;;1999.90;571.23;;;4.40;99.90;;;;;;5155242;27;20772;-75
2021/12/02 01:12:58;;;;;;;700.10;99.43;;;4.40;99.90;;;;;;5136498;27;20471;-75
2021/12/02 01:15:26;;;;;;;1999.90;638.07;;;4.40;99.90;;;;;;5136359;27;20450;-75
2021/12/02 01:17:54;;;;;;;692.53;61.17;;;4.40;99.90;;;;;;5136466;27;20452;-75
2021/12/02 01:20:23;;;;;;;1999.90;668.50;;;4.40;99.90;;;;;;5136719;27;20452;-75
2021/12/02 01:22:52;;;;;;;1999.90;713.27;;;4.40;99.90;;;;;;5140443;27;20496;-75
2021/12/02 01:25:22;;;;;;;1999.90;621.43;;;4.40;99.90;;;;;;5159267;27;20430;-75
2021/12/02 01:27:51;;;;;;;753.43;57.30;;;4.40;99.90;;;;;;5140655;27;20441;-75
2021/12/02 01:30:19;;;;;;;1999.90;506.17;;;4.40;99.90;;;;;;5140663;27;20440;-75
2021/12/02 01:32:49;;;;;;;1999.90;425.23;;;4.40;99.90;;;;;;5158912;27;20493;-75
2021/12/02 01:35:20;;;;;;;1999.90;546.03;;;4.40;99.90;;;;;;5159117;27;20418;-75
2021/12/02 01:37:49;;;;;;;1999.90;440.23;;;4.40;99.90;;;;;;5159034;27;20413;-75
2021/12/02 01:40:18;;;;;;;430.17;83.27;;;4.40;99.90;;;;;;5140187;27;20540;-75
2021/12/02 01:42:51;;;;;;;1999.90;439.67;;;4.40;99.90;;;;;;5140179;27;20540;-75
2021/12/02 01:45:22;;;;;;;1999.90;524.53;;;4.40;99.90;;;;;;5140240;27;20444;-75
2021/12/02 01:47:54;;;;;;;1999.90;524.10;;;4.40;99.90;;;;;;5159038;27;20453;-75
2021/12/02 01:50:24;;;;;;;1999.90;587.27;;;4.40;99.90;;;;;;5140030;27;20437;-75
2021/12/02 01:52:56;;;;;;;1999.90;350.37;;;4.30;99.90;;;;;;5159201;27;20465;-75
2021/12/02 01:55:26;;;;;;;1999.90;403.10;;;4.40;99.90;;;;;;5140088;27;20483;-76
2021/12/02 01:58:00;;;;;;;1999.90;645.97;;;4.30;99.90;;;;;;5139978;27;20438;-75
2021/12/02 02:00:33;;;;;;;1999.90;468.30;;;4.30;99.90;;;;;;5139822;27;20485;-75
2021/12/02 02:03:02;;;;;;;1999.90;703.33;;;4.30;99.90;;;;;;5158530;27;20453;-75
2021/12/02 02:05:31;;;;;;;368.33;71.43;;;4.20;99.90;;;;;;5139891;27;20563;-75
2021/12/02 02:08:02;;;;;;;1999.90;607.10;;;4.20;99.90;;;;;;5158291;27;20469;-75
2021/12/02 02:10:32;;;;;;;464.77;54.40;;;4.20;99.90;;;;;;5139861;27;20491;-75
2021/12/02 02:13:04;;;;;;;550.50;85.87;;;4.20;99.90;;;;;;5139585;27;20461;-75
2021/12/02 02:15:32;;;;;;;624.43;58.13;;;4.20;99.90;;;;;;5158168;27;21003;-75
2021/12/02 02:18:05;;;;;;;1999.90;430.87;;;4.10;99.90;;;;;;5139494;27;20436;-75
2021/12/02 02:20:39;;;;;;;458.53;67.67;;;4.10;99.90;;;;;;5158424;27;20431;-75
2021/12/02 02:23:11;;;;;;;808.37;178.93;;;4.10;99.90;;;;;;5157891;27;20464;-75
2021/12/02 02:25:41;;;;;;;371.73;65.63;;;4.10;99.90;;;;;;5157948;27;20436;-75
2021/12/02 02:28:09;;;;;;;977.97;70.67;;;4.10;99.90;;;;;;5157910;27;20571;-75
2021/12/02 02:30:42;;;;;;;1446.07;115.40;;;4.10;99.90;;;;;;5157854;27;20442;-75
2021/12/02 02:33:16;;;;;;;670.17;100.13;;;4.10;99.90;;;;;;5144073;27;20476;-75
2021/12/02 02:35:47;;;;;;;269.63;31.37;;;4.10;99.90;;;;;;5142136;27;20511;-75
2021/12/02 02:38:16;;;;;;;474.43;85.33;;;4.10;99.90;;;;;;5148564;27;20432;-75
2021/12/02 02:40:46;;;;;;;728.33;68.60;;;4.00;99.90;;;;;;5145569;27;20445;-75
2021/12/02 02:43:21;;;;;;;568.47;57.40;;;4.00;99.90;;;;;;5167422;27;20500;-75
2021/12/02 02:45:49;;;;;;;701.80;98.70;;;4.10;99.90;;;;;;5167101;27;20427;-75
2021/12/02 02:48:18;;;;;;;530.67;75.27;;;4.00;99.90;;;;;;5152528;27;20488;-75
2021/12/02 02:50:47;;;;;;;351.47;49.23;;;4.00;99.90;;;;;;5155332;27;20461;-75
2021/12/02 02:53:20;;;;;;;419.87;35.60;;;4.00;99.90;;;;;;5155896;27;20458;-74
2021/12/02 02:55:57;;;;;;;533.03;53.00;;;4.00;99.90;;;;;;5154862;27;20438;-75
2021/12/02 02:58:34;;;;;;;978.20;76.60;;;4.00;99.90;;;;;;5157821;27;20430;-75
2021/12/02 03:01:07;;;;;;;628.33;72.67;;;3.90;99.90;;;;;;5155585;27;20441;-75
2021/12/02 03:03:43;;;;;;;709.20;59.60;;;3.90;99.90;;;;;;5146402;27;20498;-75
2021/12/02 03:06:27;;;;;;;629.93;61.67;;;3.90;99.90;;;;;;5139929;27;20520;-75
2021/12/02 03:09:00;;;;;;;804.43;87.10;;;3.90;99.90;;;;;;5157758;27;20502;-75
2021/12/02 03:11:38;;;;;;;353.33;47.20;;;3.90;99.90;;;;;;5157633;27;20424;-75
2021/12/02 03:14:11;;;;;;;742.63;62.20;;;3.90;99.90;;;;;;5138803;27;20483;-75
2021/12/02 03:16:46;;;;;;;334.17;52.93;;;3.90;99.90;;;;;;5157112;27;20804;-75
2021/12/02 03:19:15;;;;;;;456.30;37.47;;;3.90;99.90;;;;;;5138605;27;20437;-75
2021/12/02 03:21:44;;;;;;;567.27;50.77;;;3.80;99.90;;;;;;5156948;27;20437;-75
2021/12/02 03:24:12;;;;;;;717.27;59.27;;;3.80;99.90;;;;;;5138218;27;20812;-75
2021/12/02 03:26:41;;;;;;;934.17;79.10;;;3.80;99.90;;;;;;5138180;27;20839;-75
2021/12/02 03:29:09;;;;;;;337.87;29.63;;;3.80;99.90;;;;;;5138234;27;20454;-74
2021/12/02 03:31:38;;;;;;;450.07;85.97;;;3.80;99.90;;;;;;5156887;27;20490;-75
2021/12/02 03:34:07;;;;;;;1115.37;75.60;;;3.80;99.90;;;;;;5138122;27;20454;-75
2021/12/02 03:36:36;;;;;;;1124.50;109.20;;;3.80;99.90;;;;;;5137940;27;21016;-75
2021/12/02 03:39:07;;;;;;;799.60;120.17;;;3.70;99.90;;;;;;5138013;27;20538;-75
2021/12/02 03:41:35;;;;;;;641.57;82.37;;;3.70;99.90;;;;;;5156877;27;20474;-75
2021/12/02 03:44:04;;;;;;;1556.40;199.63;;;3.70;99.90;;;;;;5137276;27;20444;-75
2021/12/02 03:46:33;;;;;;;398.05;69.80;;;3.70;99.90;;;;;;5138262;27;20441;-75
2021/12/02 03:49:02;;;;;;;117.90;36.70;;;3.80;99.90;;;;;;5137942;27;20814;-76
2021/12/02 03:51:30;;;;;;;1683.73;188.87;;;3.70;99.90;;;;;;5137816;27;20894;-75
2021/12/02 03:53:59;;;;;;;1751.23;230.27;;;3.70;99.90;;;;;;5137877;27;20462;-75
2021/12/02 03:56:29;;;;;;;493.20;45.60;;;3.70;99.90;;;;;;5137965;27;20438;-75
2021/12/02 03:58:57;;;;;;;1999.90;262.30;;;3.70;99.90;;;;;;5138113;27;20478;-75
2021/12/02 04:01:25;;;;;;;668.33;56.50;;;3.70;99.90;;;;;;5137687;27;20449;-75
2021/12/02 04:03:53;;;;;;;535.17;87.33;;;3.70;99.90;;;;;;5156449;27;20485;-75
2021/12/02 04:06:22;;;;;;;301.63;29.57;;;3.70;99.90;;;;;;5156200;27;20437;-75
2021/12/02 04:08:52;;;;;;;423.43;64.43;;;3.70;99.90;;;;;;5137433;27;20574;-75
2021/12/02 04:11:29;;;;;;;1999.90;299.73;;;3.60;99.90;;;;;;5156819;27;20448;-75
2021/12/02 04:14:15;;;;;;;1999.90;323.53;;;3.70;99.90;;;;;;5156109;27;20523;-75
2021/12/02 04:16:51;;;;;;;278.03;29.80;;;3.70;99.90;;;;;;5137349;27;20988;-75
2021/12/02 04:19:21;;;;;;;418.73;62.07;;;3.70;99.90;;;;;;5155980;27;20902;-75
2021/12/02 04:21:49;;;;;;;689.67;62.17;;;3.70;99.90;;;;;;5136953;27;20498;-75
2021/12/02 04:24:18;;;;;;;1999.90;345.43;;;3.60;99.90;;;;;;5137289;27;20539;-75
2021/12/02 04:26:46;;;;;;;435.23;32.87;;;3.60;99.90;;;;;;5137174;27;20524;-75
2021/12/02 04:29:16;;;;;;;414.33;50.60;;;3.60;99.90;;;;;;5137027;27;20486;-75
2021/12/02 04:31:48;;;;;;;376.80;40.83;;;3.60;99.90;;;;;;5155544;27;20483;-75
2021/12/02 04:34:17;;;;;;;483.43;51.60;;;3.60;99.90;;;;;;5137296;27;20451;-75
2021/12/02 04:36:46;;;;;;;725.77;73.17;;;3.60;99.90;;;;;;5137284;27;20432;-75
2021/12/02 04:39:14;;;;;;;466.17;53.13;;;3.50;99.90;;;;;;5155643;27;20529;-75
2021/12/02 04:41:42;;;;;;;382.00;60.67;;;3.50;99.90;;;;;;5136954;27;20448;-76
2021/12/02 04:44:10;;;;;;;405.27;68.93;;;3.50;99.90;;;;;;5155469;27;20515;-75
2021/12/02 04:46:40;;;;;;;493.83;62.47;;;3.50;99.90;;;;;;5136961;27;20436;-75
2021/12/02 04:49:08;;;;;;;754.80;114.13;;;3.50;99.90;;;;;;5136911;27;20517;-75
2021/12/02 04:51:37;;;;;;;290.80;49.67;;;3.50;99.90;;;;;;5136882;27;20517;-74
2021/12/02 04:54:05;;;;;;;315.00;46.97;;;3.50;99.90;;;;;;5136766;27;20538;-75
2021/12/02 04:56:33;;;;;;;395.03;59.90;;;3.50;99.90;;;;;;5135780;27;20481;-75
2021/12/02 04:59:01;;;;;;;514.37;80.80;;;3.40;99.90;;;;;;5136776;27;20791;-75
2021/12/02 05:01:30;;;;;;;604.73;90.63;;;3.40;99.90;;;;;;5136556;27;20499;-75
2021/12/02 05:04:00;;;;;;;695.83;91.23;;;3.50;99.90;;;;;;5136574;27;20505;-75
2021/12/02 05:06:28;;;;;;;549.10;96.83;;;3.40;99.90;;;;;;5136545;27;20445;-75
2021/12/02 05:08:57;;;;;;;818.67;126.57;;;3.40;99.90;;;;;;5155321;27;20467;-75
2021/12/02 05:11:26;;;;;;;1999.90;718.63;;;3.40;99.90;;;;;;5136623;27;20474;-75
2021/12/02 05:13:54;;;;;;;1999.90;194.33;;;3.40;99.90;;;;;;5154927;27;20993;-75
2021/12/02 05:16:22;;;;;;;623.97;124.50;;;3.40;99.90;;;;;;5136548;27;20484;-75
2021/12/02 05:18:51;;;;;;;1999.90;198.93;;;3.40;99.90;;;;;;5136329;27;20830;-75
2021/12/02 05:21:20;;;;;;;532.57;92.40;;;3.40;99.90;;;;;;5155179;27;20447;-75
2021/12/02 05:23:53;;;;;;;412.60;55.50;;;3.40;99.90;;;;;;5136174;27;20929;-75
2021/12/02 05:26:21;;;;;;;1999.90;187.10;;;3.40;99.90;;;;;;5136407;27;20490;-75
2021/12/02 05:28:49;;;;;;;534.97;66.50;;;3.40;99.90;;;;;;5136128;27;20468;-75
2021/12/02 05:31:18;;;;;;;533.53;96.83;;;3.40;99.90;;;;;;5154723;27;20538;-75
2021/12/02 05:33:47;;;;;;;770.23;127.67;;;3.40;99.90;;;;;;5154972;27;21073;-75
2021/12/02 05:36:15;;;;;;;1999.90;180.33;;;3.40;99.90;;;;;;5154904;27;20869;-75
2021/12/02 05:38:44;;;;;;;1999.90;185.03;;;3.40;99.90;;;;;;5136232;27;20445;-75
2021/12/02 05:41:14;;;;;;;1999.90;176.70;;;3.40;99.90;;;;;;5136263;27;20444;-75
2021/12/02 05:43:42;;;;;;;1999.90;216.80;;;3.40;99.90;;;;;;5136163;27;20492;-75
2021/12/02 05:46:11;;;;;;;726.83;137.97;;;3.40;99.90;;;;;;5154677;27;20818;-75
2021/12/02 05:48:40;;;;;;;612.93;103.87;;;3.40;99.90;;;;;;5135997;27;20467;-75
2021/12/02 05:51:08;;;;;;;532.03;106.50;;;3.30;99.90;;;;;;5154685;27;20487;-74
2021/12/02 05:53:37;;;;;;;874.20;136.90;;;3.30;99.90;;;;;;5136424;27;20462;-75
2021/12/02 05:56:07;;;;;;;1025.30;97.37;;;3.30;99.90;;;;;;5154687;27;20956;-75
2021/12/02 05:58:35;;;;;;;599.40;80.27;;;3.30;99.90;;;;;;5155095;27;20431;-75
2021/12/02 06:01:03;;;;;;;780.20;114.70;;;3.30;99.90;;;;;;5154884;27;20473;-75
2021/12/02 06:03:35;;;;;;;1018.53;126.60;;;3.20;99.90;;;;;;5154793;27;20458;-74
2021/12/02 06:06:03;;;;;;;1080.30;125.57;;;3.20;99.90;;;;;;5136137;27;20539;-74
2021/12/02 06:08:32;;;;;;;579.17;91.50;;;3.20;99.90;;;;;;5158492;27;20472;-75
2021/12/02 06:11:00;;;;;;;1418.70;122.77;;;3.20;99.90;;;;;;5139870;27;20884;-75
2021/12/02 06:13:30;;;;;;;1232.50;140.73;;;3.20;99.90;;;;;;5158187;27;20511;-75
2021/12/02 06:15:58;;;;;;;909.30;145.13;;;3.30;99.90;;;;;;5140585;27;20540;-75
2021/12/02 06:18:26;;;;;;;722.60;113.80;;;3.20;99.90;;;;;;5139491;27;20446;-75
2021/12/02 06:20:54;;;;;;;1032.20;125.73;;;3.30;99.90;;;;;;5139574;27;20475;-75
2021/12/02 06:23:23;;;;;;;805.43;121.00;;;3.20;99.90;;;;;;5158031;27;20453;-75
2021/12/02 06:25:51;;;;;;;1231.77;126.00;;;3.20;99.90;;;;;;5158101;27;20527;-75
2021/12/02 06:28:20;;;;;;;507.27;110.70;;;3.20;99.90;;;;;;5139453;27;20569;-75
2021/12/02 06:30:49;;;;;;;659.13;107.20;;;3.30;99.90;;;;;;5139440;27;20524;-75
2021/12/02 06:33:18;;;;;;;767.97;125.33;;;3.20;99.90;;;;;;5139430;27;20892;-75
2021/12/02 06:35:46;;;;;;;102.97;17.67;;;3.20;99.90;;;;;;5139570;27;20494;-75
2021/12/02 06:38:15;;;;;;;783.83;123.20;;;3.20;99.90;;;;;;5139470;27;20543;-75
2021/12/02 06:40:45;;;;;;;430.67;51.90;;;3.30;99.90;;;;;;5158047;27;20545;-75
2021/12/02 06:43:15;;;;;;;1086.03;110.00;;;3.30;99.90;;;;;;5139198;27;20554;-75
2021/12/02 06:45:45;;;;;;;1102.00;172.33;;;3.30;99.90;;;;;;5157808;27;20422;-75
2021/12/02 06:48:15;;;;;;;739.20;104.63;;;3.30;99.90;;;;;;5157872;27;20470;-75
2021/12/02 06:50:43;;;;;;;1105.30;134.30;;;3.30;99.90;;;;;;5139230;27;20539;-75
2021/12/02 06:53:12;;;;;;;1056.93;110.03;;;3.30;99.90;;;;;;5138839;27;21065;-75
2021/12/02 06:55:40;;;;;;;769.63;92.37;;;3.30;99.90;;;;;;5138939;27;20444;-75
2021/12/02 06:58:08;;;;;;;770.83;106.90;;;3.30;99.90;;;;;;5157669;27;20448;-75
2021/12/02 07:00:37;;;;;;;990.97;151.97;;;3.30;99.90;;;;;;5138802;27;20970;-75
2021/12/02 07:03:05;;;;;;;1163.13;122.13;;;3.30;99.90;;;;;;5157596;27;20483;-75
2021/12/02 07:05:35;;;;;;;1136.93;160.83;;;3.30;99.90;;;;;;5138739;27;20438;-75
2021/12/02 07:08:04;;;;;;;1088.13;107.80;;;3.40;99.90;;;;;;5138947;27;20445;-75
2021/12/02 07:10:33;;;;;;;1174.57;121.83;;;3.40;99.90;;;;;;5138632;27;20464;-75
2021/12/02 07:13:01;;;;;;;1099.57;110.80;;;3.40;99.90;;;;;;5157283;27;20451;-75
2021/12/02 07:15:31;;;;;;;1242.87;162.37;;;3.40;99.90;;;;;;5157481;27;20473;-75
2021/12/02 07:18:01;;;;;;;718.27;100.83;;;3.40;99.90;;;;;;5137950;27;20438;-75
2021/12/02 07:20:33;;;;;;;1108.07;125.23;;;3.40;99.90;;;;;;5157010;27;20434;-75
2021/12/02 07:23:03;;;;;;;916.30;133.33;;;3.40;99.90;;;;;;5138529;27;20497;-75
2021/12/02 07:25:32;;;;;;;769.23;110.20;;;3.50;99.90;;;;;;5138333;27;20536;-75
2021/12/02 07:28:01;;;;;;;1563.17;241.70;;;3.50;99.90;;;;;;5156831;27;20483;-75
2021/12/02 07:30:29;;;;;;;932.93;104.97;;;3.50;99.90;;;;;;5138281;27;20472;-75
2021/12/02 07:33:00;;;;;;;1052.10;117.70;;;3.50;99.90;;;;;;5156639;27;20554;-76
2021/12/02 07:35:28;;;;;;;968.17;106.70;;;3.50;99.90;;;;;;5138178;27;20539;-75
2021/12/02 07:37:59;;;;;;;996.23;136.93;;;3.50;99.90;;;;;;5138421;27;20940;-75
2021/12/02 07:40:33;;;;;;;1511.10;240.60;;;3.50;99.90;;;;;;5138258;27;20474;-75
2021/12/02 07:43:01;;;;;;;850.93;115.93;;;3.50;99.90;;;;;;5137907;27;20468;-75
2021/12/02 07:45:34;;;;;;;845.43;159.47;;;3.50;99.90;;;;;;5138129;27;20438;-75
2021/12/02 07:48:04;;;;;;;1350.03;130.67;;;3.50;99.90;;;;;;5156529;27;20456;-75
2021/12/02 07:50:34;;;;;;;1436.03;144.97;;;3.50;99.90;;;;;;5138036;27;21065;-75
2021/12/02 07:53:08;;;;;;;1676.50;255.50;;;3.50;99.90;;;;;;5138415;27;20555;-75
2021/12/02 07:55:41;;;;;;;1753.13;172.50;;;3.50;99.90;;;;;;5157472;27;20917;-76
2021/12/02 07:58:11;;;;;;;1390.63;150.77;;;3.50;99.90;;;;;;5173586;27;20427;-75
2021/12/02 08:00:39;;;;;;;1396.23;122.77;;;3.50;99.90;;;;;;5154368;27;20484;-75
2021/12/02 08:03:10;;;;;;;1274.03;146.37;;;3.50;99.90;;;;;;5161246;27;20465;-75
2021/12/02 08:05:39;;;;;;;1391.40;162.07;;;3.50;99.90;;;;;;5163035;27;20437;-75
2021/12/02 08:08:07;;;;;;;1022.43;166.83;;;3.50;99.90;;;;;;5148120;27;20464;-75
2021/12/02 08:10:37;;;;;;;1263.10;193.20;;;3.50;99.90;;;;;;5163667;27;20495;-75
2021/12/02 08:13:08;;;;;;;1197.83;152.83;;;3.50;99.90;;;;;;5157791;27;20462;-76
2021/12/02 08:15:36;;;;;;;511.80;79.07;;;3.60;99.90;;;;;;5162167;27;20426;-75
2021/12/02 08:18:04;;;;;;;1442.93;240.20;;;3.60;99.90;;;;;;5174936;27;20505;-75
2021/12/02 08:20:33;;;;;;;1150.47;110.93;;;3.60;99.90;;;;;;5148279;27;20976;-75
2021/12/02 08:23:01;;;;;;;1009.03;104.37;;;3.60;99.90;;;;;;5145900;27;20514;-75
2021/12/02 08:25:32;;;;;;;1414.30;132.37;;;3.60;99.90;;;;;;5160298;27;20438;-75
2021/12/02 08:28:02;;;;;;;1602.00;275.33;;;3.60;99.90;;;;;;5140060;27;20437;-75
2021/12/02 08:30:37;;;;;;;1010.10;111.17;;;3.70;99.90;;;;;;5137671;27;20918;-75
2021/12/02 08:33:07;;;;;;;966.10;147.80;;;3.70;99.90;;;;;;5137369;27;20523;-75
2021/12/02 08:35:36;;;;;;;1036.13;92.37;;;3.70;99.90;;;;;;5155884;27;20445;-75
2021/12/02 08:38:08;;;;;;;1291.93;184.37;;;3.70;99.90;;;;;;5137207;27;20446;-75
2021/12/02 08:40:38;;;;;;;940.53;126.87;;;3.70;99.90;;;;;;5137812;27;20441;-75
2021/12/02 08:43:09;;;;;;;1269.27;158.50;;;3.70;99.90;;;;;;5137089;27;20477;-75
2021/12/02 08:45:39;;;;;;;829.00;105.27;;;3.70;99.90;;;;;;5156500;27;20464;-75
2021/12/02 08:48:09;;;;;;;1014.97;149.57;;;3.70;99.90;;;;;;5155818;27;20488;-75
2021/12/02 08:50:39;;;;;;;1893.30;290.07;;;3.70;99.90;;;;;;5155531;27;20463;-75
2021/12/02 08:53:08;;;;;;;1746.90;285.53;;;3.80;99.90;;;;;;5137054;27;20563;-75
2021/12/02 08:55:39;;;;;;;1999.90;999.90;;;3.80;99.90;;;;;;5155822;27;20517;-75
2021/12/02 08:58:10;;;;;;;1130.67;111.47;;;3.80;99.90;;;;;;5136883;27;20819;-75
2021/12/02 09:00:40;;;;;;;1999.90;343.00;;;3.80;99.90;;;;;;5137298;27;20428;-75
2021/12/02 09:03:28;;;;;;;1354.70;135.70;;;3.80;99.90;;;;;;5136735;27;20468;-75
2021/12/02 09:05:56;;;;;;;1112.70;182.07;;;3.80;99.90;;;;;;5155128;27;20829;-75
2021/12/02 09:08:24;;;;;;;841.97;81.93;;;3.80;99.90;;;;;;5136436;27;20466;-75
2021/12/02 09:10:52;;;;;;;1545.83;268.00;;;3.80;99.90;;;;;;5136551;27;20560;-75
2021/12/02 09:13:22;;;;;;;1533.40;229.23;;;3.90;99.90;;;;;;5136867;27;20520;-75
2021/12/02 09:15:51;;;;;;;1999.90;999.90;;;3.90;99.90;;;;;;5136756;27;20529;-76
2021/12/02 09:18:19;;;;;;;1105.13;115.83;;;3.90;99.90;;;;;;5136511;27;20544;-75
2021/12/02 09:20:48;;;;;;;1759.37;284.70;;;3.90;99.90;;;;;;5155048;27;20945;-76
2021/12/02 09:23:16;;;;;;;1999.90;999.90;;;3.90;99.90;;;;;;5136369;27;20483;-76
2021/12/02 09:25:45;;;;;;;1999.90;999.90;;;4.00;99.90;;;;;;5155497;27;20801;-75
2021/12/02 09:28:15;;;;;;;1906.10;394.90;;;4.00;99.90;;;;;;5136404;27;20482;-75
2021/12/02 09:30:47;;;;;;;1999.90;411.97;;;4.00;99.90;;;;;;5155184;27;20931;-75
2021/12/02 09:33:15;;;;;;;1198.40;210.13;;;4.00;99.90;;;;;;5136871;27;20547;-75
2021/12/02 09:35:44;;;;;;;681.17;86.47;;;4.00;99.90;;;;;;5154861;27;20530;-76
2021/12/02 09:38:12;;;;;;;1947.57;298.30;;;4.00;99.90;;;;;;5136337;27;20497;-75
2021/12/02 09:40:42;;;;;;;1923.93;327.47;;;4.00;99.90;;;;;;5136326;27;20478;-75
2021/12/02 09:43:11;;;;;;;1519.37;698.17;;;4.00;99.90;;;;;;5139610;27;20469;-75
2021/12/02 09:45:40;;;;;;;1999.90;999.90;;;4.00;99.90;;;;;;5158887;27;20448;-75
2021/12/02 09:48:11;;;;;;;1999.90;999.90;;;4.00;99.90;;;;;;5140299;27;20459;-76
2021/12/02 09:50:50;;;;;;;1999.90;396.53;;;4.00;99.90;;;;;;5140243;27;20520;-75
2021/12/02 09:53:21;;;;;;;1615.60;238.43;;;4.10;99.90;;;;;;5140240;27;20552;-75
2021/12/02 09:55:55;;;;;;;1714.93;240.80;;;4.10;99.90;;;;;;5140140;27;20871;-75
2021/12/02 09:58:25;;;;;;;1999.90;999.90;;;4.10;99.90;;;;;;5140177;27;20434;-75
2021/12/02 10:00:58;;;;;;;1999.90;999.90;;;4.20;99.90;;;;;;5158910;27;20638;-76
2021/12/02 10:03:33;;;;;;;1999.90;999.90;;;4.20;99.90;;;;;;5139846;27;20469;-76
2021/12/02 10:06:06;;;;;;;1998.77;291.20;;;4.30;99.90;;;;;;5158936;27;20517;-76
2021/12/02 10:08:44;;;;;;;1999.90;999.90;;;4.30;99.90;;;;;;5158824;27;20455;-75
2021/12/02 10:11:15;;;;;;;1999.90;999.90;;;4.40;99.90;;;;;;5139906;27;20484;-76
2021/12/02 10:13:47;;;;;;;1999.90;416.53;;;4.40;99.90;;;;;;5159036;27;20509;-76
2021/12/02 10:16:22;;;;;;;1999.90;999.90;;;4.40;99.90;;;;;;5158763;27;20421;-75
2021/12/02 10:19:00;;;;;;;1999.90;465.83;;;4.40;99.90;;;;;;5140037;27;20527;-75
2021/12/02 10:21:33;;;;;;;1999.90;999.90;;;4.50;99.90;;;;;;5158363;27;20903;-76
2021/12/02 10:24:07;;;;;;;1999.90;487.10;;;4.50;99.90;;;;;;5139595;27;20473;-75
2021/12/02 10:26:38;;;;;;;1999.90;775.83;;;4.50;99.90;;;;;;5139675;27;20522;-75
2021/12/02 10:29:15;;;;;;;1999.90;389.33;;;4.50;99.90;;;;;;5139657;27;20528;-76
2021/12/02 10:31:47;;;;;;;1999.90;999.90;;;4.60;99.90;;;;;;5158042;27;21002;-76
2021/12/02 10:34:19;;;;;;;1999.90;999.90;;;4.50;99.90;;;;;;5139485;27;20470;-76
2021/12/02 10:36:48;;;;;;;1999.90;999.90;;;4.60;99.90;;;;;;5158174;27;20422;-76
2021/12/02 10:39:19;;;;;;;1999.90;999.90;;;4.60;99.90;;;;;;5139319;27;20798;-75
2021/12/02 10:42:01;;;;;;;1999.90;999.90;;;4.50;99.90;;;;;;5139302;27;20430;-75
2021/12/02 10:44:33;;;;;;;1999.90;999.90;;;4.50;99.90;;;;;;5139358;27;20792;-75
2021/12/02 10:47:04;;;;;;;1999.90;345.53;;;4.50;99.90;;;;;;5158113;27;20776;-76
2021/12/02 10:49:41;;;;;;;1999.90;999.90;;;4.50;99.90;;;;;;5157704;27;20422;-76
2021/12/02 10:52:11;;;;;;;1999.90;388.57;;;4.40;99.90;;;;;;5138805;27;20483;-75
2021/12/02 10:54:46;;;;;;;1681.27;233.07;;;4.40;99.90;;;;;;5139253;27;20468;-75
2021/12/02 10:57:18;;;;;;;1999.90;229.60;;;4.30;99.90;;;;;;5158019;27;20431;-75
2021/12/02 10:59:48;;;;;;;846.87;75.53;;;4.10;99.90;;;;;;5157767;27;20418;-75
2021/12/02 11:02:26;;;;;;;1223.30;119.20;;;3.80;99.90;;;;;;5157711;27;20560;-75
2021/12/02 11:04:59;;;;;;;937.80;116.53;;;3.60;99.90;;;;;;5139063;27;20505;-75
2021/12/02 11:07:30;;;;;;;1051.07;118.90;;;3.40;99.90;;;;;;5139166;27;20495;-75
2021/12/02 11:10:00;;;;;;;298.77;32.93;;;3.20;99.90;;;;;;5139009;27;20468;-75
2021/12/02 11:12:33;;;;;;;1110.87;175.87;;;3.00;99.90;;;;;;5139844;27;21017;-75
2021/12/02 11:15:10;;;;;;;976.27;166.43;;;2.90;99.90;;;;;;5157769;27;20410;-75
2021/12/02 11:17:47;;;;;;;1227.23;191.27;;;2.80;99.90;;;;;;5139623;27;20449;-74
2021/12/02 11:20:22;;;;;;;827.33;117.33;;;2.70;99.90;;;;;;5157727;27;20480;-75
2021/12/02 11:22:55;;;;;;;441.47;32.47;;;2.70;99.90;;;;;;5138446;27;20464;-75
2021/12/02 11:25:24;;;;;;;1159.03;193.03;;;2.70;99.90;;;;;;5138456;27;20447;-75
2021/12/02 11:27:53;;;;;;;593.83;98.53;;;2.60;99.90;;;;;;5138642;27;20915;-75
2021/12/02 11:30:23;;;;;;;1121.30;100.53;;;2.60;99.90;;;;;;5138618;27;20915;-75
2021/12/02 11:32:56;;;;;;;882.07;163.33;;;2.60;99.90;;;;;;5156627;27;20482;-75
2021/12/02 11:35:33;;;;;;;1363.97;236.50;;;2.60;99.90;;;;;;5138381;27;20438;-75
2021/12/02 11:38:06;;;;;;;988.60;104.57;;;2.60;99.90;;;;;;5138115;27;20438;-75
2021/12/02 11:40:37;;;;;;;709.97;117.77;;;2.60;99.90;;;;;;5138072;27;20434;-75
2021/12/02 11:43:06;;;;;;;597.90;87.57;;;2.60;99.90;;;;;;5138063;27;20474;-75
2021/12/02 11:45:42;;;;;;;1207.90;135.90;;;2.50;99.90;;;;;;5156444;27;20887;-76
2021/12/02 11:48:11;;;;;;;749.03;111.20;;;2.50;99.90;;;;;;5137925;27;20453;-75
2021/12/02 11:50:42;;;;;;;875.93;93.40;;;2.50;99.90;;;;;;5137968;27;20438;-76
2021/12/02 11:53:10;;;;;;;863.40;108.63;;;2.60;99.90;;;;;;5137799;27;21014;-75
2021/12/02 11:55:42;;;;;;;1192.00;98.37;;;2.60;99.90;;;;;;5137775;27;20986;-76
2021/12/02 11:58:11;;;;;;;724.80;111.90;;;2.60;99.90;;;;;;5156259;27;20431;-75
2021/12/02 12:00:39;;;;;;;1612.53;143.83;;;2.70;99.90;;;;;;5156605;27;20441;-76
2021/12/02 12:03:10;;;;;;;849.73;186.57;;;2.70;99.90;;;;;;5137643;27;20468;-76
2021/12/02 12:05:46;;;;;;;1182.97;135.27;;;2.80;99.90;;;;;;5137268;27;20443;-76
2021/12/02 12:08:30;;;;;;;552.03;85.83;;;2.80;99.90;;;;;;5156586;27;20807;-76
2021/12/02 12:10:58;;;;;;;834.83;122.43;;;2.90;99.90;;;;;;5138504;27;20434;-76
2021/12/02 12:13:26;;;;;;;957.47;154.47;;;2.90;99.90;;;;;;5137515;27;20826;-76
2021/12/02 12:15:58;;;;;;;1339.80;115.20;;;2.90;99.90;;;;;;5137340;27;20481;-75
2021/12/02 12:18:39;;;;;;;1501.57;139.17;;;2.90;99.90;;;;;;5137960;27;20461;-75
2021/12/02 12:21:15;;;;;;;1093.90;172.77;;;2.90;99.90;;;;;;5156167;27;20479;-75
2021/12/02 12:23:46;;;;;;;906.63;134.00;;;2.90;99.90;;;;;;5137093;27;20559;-75
2021/12/02 12:26:31;;;;;;;800.00;105.47;;;2.90;99.90;;;;;;5136847;27;20478;-75
2021/12/02 12:29:36;;;;;;;959.00;131.23;;;2.90;99.90;;;;;;5137161;27;20952;-76
2021/12/02 12:32:47;;;;;;;951.83;148.03;;;2.90;99.90;;;;;;5155487;27;20475;-76
2021/12/02 12:38:22;;;;;;;630.43;95.40;;;2.90;99.90;;;;;;5137701;27;20800;-76
2021/12/02 12:40:52;;;;;;;1491.77;139.87;;;2.90;99.90;;;;;;5136966;27;20442;-76